Time;durP1;ratioP1;P1;durP2;ratioP2;P2;SDS_P1;SDS_P2;PMS_P1;PMS_P2;Temp;Humidity;BMP_temperature;BMP_pressure;BME280_temperature;BME280_humidity;BME280_pressure;Samples;Min_cycle;Max_cycle;Signal;HPM_P1;HPM_P2
2022/01/05 00:00:39;;;;;;;4.03;1.27;;;2.00;99.90;;;;;;5080442;28;20075;-54
2022/01/05 00:03:06;;;;;;;3.38;1.23;;;2.00;99.90;;;;;;5081350;28;20079;-56
2022/01/05 00:05:33;;;;;;;3.22;1.20;;;2.00;99.90;;;;;;5080974;28;20044;-56
2022/01/05 00:08:00;;;;;;;4.63;1.38;;;2.00;99.90;;;;;;5075839;28;20079;-56
2022/01/05 00:10:27;;;;;;;4.15;1.63;;;2.00;99.90;;;;;;5080825;28;20138;-57
2022/01/05 00:12:54;;;;;;;3.88;1.25;;;2.00;99.90;;;;;;5081688;28;20553;-57
2022/01/05 00:15:20;;;;;;;1.73;0.90;;;2.00;99.90;;;;;;5080440;28;20190;-53
2022/01/05 00:17:47;;;;;;;4.85;1.38;;;2.00;99.90;;;;;;5081794;28;20079;-57
2022/01/05 00:20:14;;;;;;;4.53;1.27;;;2.00;99.90;;;;;;5082006;28;20167;-55
2022/01/05 00:22:41;;;;;;;3.70;1.35;;;2.00;99.90;;;;;;5080711;28;20143;-56
2022/01/05 00:25:08;;;;;;;4.90;1.80;;;2.00;99.90;;;;;;5080308;28;20143;-56
2022/01/05 00:27:34;;;;;;;3.85;1.30;;;2.00;99.90;;;;;;5081432;28;20143;-55
2022/01/05 00:30:01;;;;;;;6.78;1.77;;;2.00;99.90;;;;;;5080047;28;20135;-55
2022/01/05 00:32:28;;;;;;;7.65;2.15;;;2.00;99.90;;;;;;5082210;28;20475;-55
2022/01/05 00:34:55;;;;;;;4.47;1.48;;;2.00;99.90;;;;;;5081149;28;20078;-56
2022/01/05 00:37:21;;;;;;;4.43;1.50;;;2.00;99.90;;;;;;5082115;28;20136;-56
2022/01/05 00:39:48;;;;;;;3.75;1.42;;;2.00;99.90;;;;;;5079072;28;20147;-54
2022/01/05 00:42:15;;;;;;;3.42;1.33;;;2.00;99.90;;;;;;5076706;28;20799;-55
2022/01/05 00:44:42;;;;;;;3.15;1.27;;;2.00;99.90;;;;;;5079109;28;20488;-55
2022/01/05 00:47:09;;;;;;;4.80;1.20;;;2.00;99.90;;;;;;5081455;28;20076;-54
2022/01/05 00:49:36;;;;;;;5.90;1.73;;;2.00;99.90;;;;;;5081292;28;20144;-56
2022/01/05 00:52:04;;;;;;;5.97;1.10;;;2.00;99.90;;;;;;5081706;28;20058;-54
2022/01/05 00:54:30;;;;;;;3.28;1.30;;;2.00;99.90;;;;;;5080741;28;20151;-56
2022/01/05 00:56:57;;;;;;;4.82;1.73;;;1.90;99.90;;;;;;5080980;28;20040;-55
2022/01/05 00:59:24;;;;;;;3.95;1.40;;;1.90;99.90;;;;;;5079591;28;20131;-56
2022/01/05 01:01:51;;;;;;;6.38;1.50;;;2.00;99.90;;;;;;5079624;28;20160;-56
2022/01/05 01:04:18;;;;;;;4.47;1.55;;;2.00;99.90;;;;;;5077071;28;20071;-53
2022/01/05 01:06:45;;;;;;;6.05;1.50;;;2.00;99.90;;;;;;5081700;28;20061;-55
2022/01/05 01:09:13;;;;;;;4.68;1.50;;;2.00;99.90;;;;;;5080646;28;20549;-56
2022/01/05 01:11:39;;;;;;;4.30;1.30;;;2.00;99.90;;;;;;5081071;28;20136;-55
2022/01/05 01:14:06;;;;;;;6.15;1.85;;;1.90;99.90;;;;;;5079557;28;20207;-55
2022/01/05 01:16:33;;;;;;;3.10;1.40;;;1.90;99.90;;;;;;5080883;28;20558;-53
2022/01/05 01:19:00;;;;;;;3.05;1.58;;;1.90;99.90;;;;;;5082706;28;20436;-54
2022/01/05 01:21:26;;;;;;;3.85;1.90;;;1.90;99.90;;;;;;5082869;28;20086;-55
2022/01/05 01:23:56;;;;;;;8.05;1.45;;;1.90;99.90;;;;;;5083332;28;20542;-55
2022/01/05 01:26:25;;;;;;;5.95;1.80;;;1.90;99.90;;;;;;5084449;28;20083;-56
2022/01/05 01:28:52;;;;;;;2.90;1.70;;;1.90;99.90;;;;;;5082427;28;20177;-54
2022/01/05 01:31:19;;;;;;;5.13;1.50;;;1.90;99.90;;;;;;5084008;28;20135;-56
2022/01/05 01:33:46;;;;;;;6.50;1.55;;;1.90;99.90;;;;;;5083213;28;20125;-54
2022/01/05 01:36:13;;;;;;;7.43;1.65;;;1.90;99.90;;;;;;5083802;28;20078;-55
2022/01/05 01:38:41;;;;;;;3.95;1.52;;;1.90;99.90;;;;;;5083177;28;20627;-56
2022/01/05 01:41:09;;;;;;;3.63;1.40;;;1.90;99.90;;;;;;5083810;28;20080;-54
2022/01/05 01:43:36;;;;;;;3.95;1.30;;;1.90;99.90;;;;;;5081877;28;20135;-55
2022/01/05 01:46:04;;;;;;;4.43;1.50;;;1.90;99.90;;;;;;5083589;28;20130;-56
2022/01/05 01:48:31;;;;;;;2.97;1.30;;;1.90;99.90;;;;;;5083462;28;20199;-57
2022/01/05 01:50:58;;;;;;;8.13;1.70;;;2.00;99.90;;;;;;5083457;28;20434;-53
2022/01/05 01:53:25;;;;;;;5.15;2.13;;;2.00;99.90;;;;;;5083911;28;20159;-52
2022/01/05 01:55:51;;;;;;;4.95;1.50;;;1.90;99.90;;;;;;5083856;28;20507;-56
2022/01/05 01:58:19;;;;;;;3.65;1.52;;;2.00;99.90;;;;;;5081578;28;20077;-55
2022/01/05 02:00:45;;;;;;;4.75;1.35;;;2.00;99.90;;;;;;5081075;28;20047;-56
2022/01/05 02:03:14;;;;;;;4.60;1.73;;;2.00;99.90;;;;;;5081674;28;20139;-51
2022/01/05 02:05:41;;;;;;;6.28;1.38;;;2.00;99.90;;;;;;5083321;28;20044;-56
2022/01/05 02:08:07;;;;;;;6.55;1.52;;;2.00;99.90;;;;;;5083790;28;20554;-55
2022/01/05 02:10:34;;;;;;;5.20;1.45;;;2.10;99.90;;;;;;5081176;28;20161;-56
2022/01/05 02:13:01;;;;;;;4.30;1.10;;;2.00;99.90;;;;;;5082036;28;20072;-56
2022/01/05 02:15:28;;;;;;;3.83;1.23;;;2.00;99.90;;;;;;5081969;28;20849;-56
2022/01/05 02:18:09;;;;;;;2.40;1.02;;;2.00;99.90;;;;;;5082687;28;20122;-55
2022/01/05 02:20:36;;;;;;;4.78;2.08;;;2.00;99.90;;;;;;5083355;28;20451;-55
2022/01/05 02:23:03;;;;;;;3.97;1.20;;;1.90;99.90;;;;;;5083554;28;20136;-54
2022/01/05 02:25:30;;;;;;;3.03;1.10;;;1.90;99.90;;;;;;5079800;28;20071;-54
2022/01/05 02:27:57;;;;;;;5.60;1.70;;;1.90;99.90;;;;;;5082873;28;20570;-56
2022/01/05 02:30:26;;;;;;;3.42;1.30;;;1.90;99.90;;;;;;5081495;28;20086;-56
2022/01/05 02:32:53;;;;;;;3.45;1.20;;;1.90;99.90;;;;;;5078414;28;20123;-57
2022/01/05 02:35:20;;;;;;;4.43;1.60;;;1.90;99.90;;;;;;5079053;28;20079;-55
2022/01/05 02:37:50;;;;;;;2.92;1.25;;;1.90;99.90;;;;;;5082183;28;20127;-56
2022/01/05 02:40:17;;;;;;;3.72;1.58;;;1.90;99.90;;;;;;5082853;28;20044;-56
2022/01/05 02:42:44;;;;;;;4.50;1.23;;;1.90;99.90;;;;;;5084365;28;20048;-57
2022/01/05 02:45:12;;;;;;;3.95;1.23;;;1.90;99.90;;;;;;5082952;28;20591;-56
2022/01/05 02:47:39;;;;;;;3.17;1.20;;;1.90;99.90;;;;;;5084272;28;20048;-54
2022/01/05 02:50:07;;;;;;;6.47;1.50;;;1.90;99.90;;;;;;5082596;28;20411;-56
2022/01/05 02:52:34;;;;;;;7.72;1.98;;;1.90;99.90;;;;;;5083602;28;20064;-54
2022/01/05 02:55:02;;;;;;;6.30;1.52;;;1.90;99.90;;;;;;5083179;28;20138;-56
2022/01/05 02:57:29;;;;;;;3.70;1.50;;;1.90;99.90;;;;;;5083440;28;20110;-54
2022/01/05 02:59:56;;;;;;;4.32;2.30;;;2.00;99.90;;;;;;5082290;28;20131;-56
2022/01/05 03:02:23;;;;;;;5.05;1.58;;;1.90;99.90;;;;;;5082236;28;20139;-56
2022/01/05 03:04:50;;;;;;;8.10;1.80;;;1.90;99.90;;;;;;5083274;28;20067;-56
2022/01/05 03:07:17;;;;;;;6.03;1.60;;;2.00;99.90;;;;;;5083509;28;20167;-57
2022/01/05 03:09:43;;;;;;;7.50;1.48;;;2.00;99.90;;;;;;5081580;28;20067;-55
2022/01/05 03:12:11;;;;;;;4.88;1.60;;;1.90;99.90;;;;;;5083318;28;20135;-55
2022/01/05 03:14:37;;;;;;;9.60;1.55;;;2.00;99.90;;;;;;5085305;28;20139;-55
2022/01/05 03:17:04;;;;;;;7.25;1.40;;;1.90;99.90;;;;;;5085662;28;20114;-51
2022/01/05 03:19:31;;;;;;;8.18;1.90;;;1.90;99.90;;;;;;5086299;28;20094;-54
2022/01/05 03:21:58;;;;;;;4.22;1.40;;;1.90;99.90;;;;;;5087199;28;20137;-56
2022/01/05 03:24:25;;;;;;;2.95;1.10;;;2.00;99.90;;;;;;5087019;28;20127;-53
2022/01/05 03:26:52;;;;;;;5.05;1.60;;;1.90;99.90;;;;;;5086894;28;20144;-55
2022/01/05 03:29:18;;;;;;;7.22;1.83;;;1.90;99.90;;;;;;5085598;28;20094;-54
2022/01/05 03:31:45;;;;;;;6.07;1.73;;;1.90;99.90;;;;;;5086921;28;20127;-53
2022/01/05 03:34:18;;;;;;;3.83;1.45;;;1.90;99.90;;;;;;5087174;28;20143;-54
2022/01/05 03:36:45;;;;;;;5.72;2.00;;;1.90;99.90;;;;;;5085027;28;20555;-55
2022/01/05 03:39:12;;;;;;;4.75;1.33;;;1.90;99.90;;;;;;5087324;28;20143;-56
2022/01/05 03:41:39;;;;;;;2.85;1.25;;;1.90;99.90;;;;;;5087756;28;20083;-54
2022/01/05 03:44:06;;;;;;;5.63;2.13;;;1.90;99.90;;;;;;5085849;28;20113;-53
2022/01/05 03:46:32;;;;;;;5.95;1.55;;;1.90;99.90;;;;;;5087487;28;20079;-56
2022/01/05 03:49:00;;;;;;;3.83;1.45;;;1.90;99.90;;;;;;5086341;28;20731;-55
2022/01/05 03:51:26;;;;;;;7.10;1.55;;;1.90;99.90;;;;;;5087340;28;20052;-55
2022/01/05 03:53:53;;;;;;;4.35;1.52;;;1.90;99.90;;;;;;5084571;28;20174;-56
2022/01/05 03:56:20;;;;;;;3.55;1.30;;;1.90;99.90;;;;;;5086425;28;20233;-56
2022/01/05 03:58:47;;;;;;;2.28;1.08;;;1.90;99.90;;;;;;5081773;28;20152;-56
2022/01/05 04:01:14;;;;;;;4.82;1.30;;;1.90;99.90;;;;;;5078118;28;20495;-54
2022/01/05 04:03:41;;;;;;;5.93;1.73;;;1.90;99.90;;;;;;5085218;28;20938;-50
2022/01/05 04:06:08;;;;;;;5.28;1.52;;;1.90;99.90;;;;;;5086047;28;20166;-57
2022/01/05 04:08:34;;;;;;;3.92;1.67;;;1.90;99.90;;;;;;5085257;28;20097;-53
2022/01/05 04:11:01;;;;;;;5.05;1.42;;;1.90;99.90;;;;;;5086735;28;20064;-56
2022/01/05 04:13:28;;;;;;;6.78;1.58;;;1.90;99.90;;;;;;5085569;28;20082;-53
2022/01/05 04:15:55;;;;;;;3.53;1.17;;;1.80;99.90;;;;;;5087281;28;20137;-56
2022/01/05 04:18:21;;;;;;;5.88;1.60;;;1.80;99.90;;;;;;5084640;28;20147;-55
2022/01/05 04:20:48;;;;;;;4.40;1.20;;;1.80;99.90;;;;;;5086910;28;20075;-53
2022/01/05 04:23:15;;;;;;;3.55;1.00;;;1.80;99.90;;;;;;5087232;28;20130;-56
2022/01/05 04:25:42;;;;;;;4.40;1.13;;;1.80;99.90;;;;;;5086297;28;20491;-51
2022/01/05 04:28:08;;;;;;;4.00;1.23;;;1.80;99.90;;;;;;5086935;28;20495;-54
2022/01/05 04:30:35;;;;;;;4.47;1.50;;;1.70;99.90;;;;;;5085469;28;20052;-54
2022/01/05 04:33:02;;;;;;;4.88;1.50;;;1.70;99.90;;;;;;5086256;28;20689;-52
2022/01/05 04:35:49;;;;;;;4.68;1.67;;;1.70;99.90;;;;;;5086608;28;20070;-56
2022/01/05 04:38:16;;;;;;;5.18;1.38;;;1.80;99.90;;;;;;5085860;28;20132;-56
2022/01/05 04:40:44;;;;;;;5.43;1.95;;;1.80;99.90;;;;;;5085988;28;20459;-56
2022/01/05 04:43:11;;;;;;;6.07;1.38;;;1.80;99.90;;;;;;5085730;28;20092;-55
2022/01/05 04:45:37;;;;;;;2.55;1.10;;;1.80;99.90;;;;;;5083889;28;20106;-53
2022/01/05 04:48:05;;;;;;;3.83;1.30;;;1.80;99.90;;;;;;5085734;28;20046;-54
2022/01/05 04:50:31;;;;;;;4.40;1.60;;;1.80;99.90;;;;;;5086231;28;20918;-53
2022/01/05 04:52:58;;;;;;;4.50;1.30;;;1.80;99.90;;;;;;5086398;28;20126;-53
2022/01/05 04:55:25;;;;;;;4.47;1.13;;;1.80;99.90;;;;;;5085569;28;20487;-50
2022/01/05 04:57:52;;;;;;;4.28;1.27;;;1.80;99.90;;;;;;5085755;28;20074;-53
2022/01/05 05:00:18;;;;;;;3.58;1.35;;;1.80;99.90;;;;;;5085054;28;20080;-53
2022/01/05 05:02:45;;;;;;;2.95;1.40;;;1.80;99.90;;;;;;5085091;28;20098;-52
2022/01/05 05:05:12;;;;;;;5.05;1.40;;;1.80;99.90;;;;;;5085522;28;20048;-55
2022/01/05 05:07:39;;;;;;;3.30;1.10;;;1.80;99.90;;;;;;5086240;28;20086;-54
2022/01/05 05:10:06;;;;;;;2.63;1.02;;;1.80;99.90;;;;;;5085050;28;20143;-54
2022/01/05 05:12:33;;;;;;;6.53;1.40;;;1.80;99.90;;;;;;5084910;28;20083;-54
2022/01/05 05:14:59;;;;;;;4.78;1.20;;;1.80;99.90;;;;;;5083921;28;20128;-54
2022/01/05 05:17:26;;;;;;;5.57;1.70;;;1.80;99.90;;;;;;5086120;28;20109;-54
2022/01/05 05:19:53;;;;;;;5.32;1.83;;;1.80;99.90;;;;;;5084924;28;20144;-50
2022/01/05 05:22:20;;;;;;;3.60;1.42;;;1.80;99.90;;;;;;5085286;28;20067;-52
2022/01/05 05:24:46;;;;;;;4.57;1.52;;;1.80;99.90;;;;;;5085702;28;20123;-50
2022/01/05 05:27:13;;;;;;;3.60;1.30;;;1.80;99.90;;;;;;5084245;28;20649;-56
2022/01/05 05:29:40;;;;;;;4.80;1.42;;;1.80;99.90;;;;;;5082408;28;20083;-55
2022/01/05 05:32:07;;;;;;;5.38;1.17;;;1.80;99.90;;;;;;5085329;28;20654;-52
2022/01/05 05:34:34;;;;;;;5.07;1.60;;;1.80;99.90;;;;;;5084745;28;20047;-56
2022/01/05 05:37:01;;;;;;;3.55;1.42;;;1.80;99.90;;;;;;5083989;28;20062;-55
2022/01/05 05:39:27;;;;;;;3.92;1.13;;;1.80;99.90;;;;;;5085130;28;20123;-55
2022/01/05 05:41:54;;;;;;;4.30;1.38;;;1.80;99.90;;;;;;5084999;28;20140;-56
2022/01/05 05:44:21;;;;;;;5.47;1.58;;;1.80;99.90;;;;;;5083243;28;20135;-58
2022/01/05 05:46:48;;;;;;;6.15;1.75;;;1.90;99.90;;;;;;5085075;28;20097;-56
2022/01/05 05:49:14;;;;;;;4.45;1.65;;;1.80;99.90;;;;;;5080892;28;20051;-56
2022/01/05 05:51:41;;;;;;;3.72;1.33;;;1.90;99.90;;;;;;5083207;28;20142;-55
2022/01/05 05:54:08;;;;;;;6.50;1.40;;;1.80;99.90;;;;;;5083070;28;20063;-55
2022/01/05 05:56:35;;;;;;;4.90;1.77;;;1.80;99.90;;;;;;5083193;28;20127;-56
2022/01/05 05:59:02;;;;;;;5.03;1.13;;;1.80;99.90;;;;;;5081436;28;20135;-56
2022/01/05 06:01:29;;;;;;;3.53;1.58;;;1.80;99.90;;;;;;5078561;28;20048;-55
2022/01/05 06:03:56;;;;;;;6.25;2.13;;;1.90;99.90;;;;;;5079355;28;20059;-56
2022/01/05 06:06:23;;;;;;;6.97;2.00;;;1.90;99.90;;;;;;5081491;28;20183;-54
2022/01/05 06:08:49;;;;;;;5.72;1.60;;;1.90;99.90;;;;;;5080476;28;20601;-56
2022/01/05 06:11:16;;;;;;;4.60;1.45;;;1.90;99.90;;;;;;5080431;28;20135;-56
2022/01/05 06:13:43;;;;;;;4.82;1.38;;;1.90;99.90;;;;;;5079549;28;21033;-55
2022/01/05 06:16:10;;;;;;;8.10;1.80;;;1.90;99.90;;;;;;5080835;28;20126;-52
2022/01/05 06:18:36;;;;;;;5.22;1.77;;;1.90;99.90;;;;;;5079788;28;20416;-56
2022/01/05 06:21:03;;;;;;;4.63;1.73;;;2.00;99.90;;;;;;5075773;28;20076;-54
2022/01/05 06:23:30;;;;;;;9.07;2.60;;;2.00;99.90;;;;;;5080415;28;20122;-53
2022/01/05 06:25:57;;;;;;;4.43;1.58;;;2.00;99.90;;;;;;5080076;28;20147;-55
2022/01/05 06:28:24;;;;;;;5.43;2.22;;;2.00;99.90;;;;;;5080021;28;20431;-53
2022/01/05 06:30:50;;;;;;;7.43;2.25;;;2.00;99.90;;;;;;5081502;28;20121;-57
2022/01/05 06:33:17;;;;;;;4.13;1.38;;;2.00;99.90;;;;;;5082406;28;20151;-55
2022/01/05 06:35:44;;;;;;;4.03;1.33;;;2.00;99.90;;;;;;5066437;28;20106;-54
2022/01/05 06:38:11;;;;;;;4.90;1.65;;;2.00;99.90;;;;;;5084376;28;20826;-50
2022/01/05 06:40:37;;;;;;;3.63;1.10;;;2.00;99.90;;;;;;5082080;28;20177;-55
2022/01/05 06:43:04;;;;;;;3.72;1.27;;;2.00;99.90;;;;;;5083239;28;20079;-56
2022/01/05 06:45:31;;;;;;;4.43;1.30;;;2.10;99.90;;;;;;5083126;28;20415;-54
2022/01/05 06:47:58;;;;;;;4.53;1.30;;;2.10;99.90;;;;;;5083435;28;20127;-56
2022/01/05 06:50:25;;;;;;;2.65;1.10;;;2.00;99.90;;;;;;5086153;28;20059;-55
2022/01/05 06:52:55;;;;;;;2.97;1.70;;;2.10;99.90;;;;;;5085997;28;20091;-55
2022/01/05 06:55:22;;;;;;;5.50;1.50;;;2.10;99.90;;;;;;5087742;28;20151;-56
2022/01/05 06:57:51;;;;;;;8.20;1.67;;;2.00;99.90;;;;;;5082356;28;20050;-56
2022/01/05 07:00:18;;;;;;;5.50;1.52;;;2.10;99.90;;;;;;5085747;28;20109;-56
2022/01/05 07:02:45;;;;;;;7.40;1.65;;;2.10;99.90;;;;;;5081675;28;20123;-55
2022/01/05 07:05:11;;;;;;;4.65;1.70;;;2.10;99.90;;;;;;5082496;28;20044;-55
2022/01/05 07:07:38;;;;;;;3.75;1.30;;;2.10;99.90;;;;;;5077560;28;20488;-53
2022/01/05 07:10:06;;;;;;;3.90;1.42;;;2.10;99.90;;;;;;5077208;28;20211;-54
2022/01/05 07:12:33;;;;;;;3.40;1.30;;;2.10;99.90;;;;;;5080404;28;20095;-55
2022/01/05 07:15:00;;;;;;;3.05;1.20;;;2.10;99.90;;;;;;5077247;28;20044;-56
2022/01/05 07:17:27;;;;;;;5.25;1.50;;;2.00;99.90;;;;;;5081437;28;20457;-53
2022/01/05 07:19:54;;;;;;;4.38;1.80;;;2.10;99.90;;;;;;5080622;28;20168;-55
2022/01/05 07:22:21;;;;;;;5.60;1.20;;;2.10;99.90;;;;;;5080444;28;20052;-57
2022/01/05 07:24:47;;;;;;;6.18;1.45;;;2.10;99.90;;;;;;5080083;28;20139;-55
2022/01/05 07:27:14;;;;;;;6.32;1.75;;;2.10;99.90;;;;;;5079948;28;20496;-53
2022/01/05 07:29:41;;;;;;;4.38;1.48;;;2.10;99.90;;;;;;5079390;28;20185;-57
2022/01/05 07:32:08;;;;;;;5.63;1.40;;;2.10;99.90;;;;;;5080019;28;20052;-56
2022/01/05 07:34:35;;;;;;;5.55;1.50;;;2.20;99.90;;;;;;5079959;28;20102;-55
2022/01/05 07:37:02;;;;;;;4.18;1.40;;;2.10;99.90;;;;;;5080386;28;20055;-57
2022/01/05 07:39:29;;;;;;;3.72;1.38;;;2.10;99.90;;;;;;5080810;28;20223;-56
2022/01/05 07:41:56;;;;;;;5.05;1.60;;;2.10;99.90;;;;;;5080372;28;20066;-56
2022/01/05 07:44:23;;;;;;;9.55;1.50;;;2.10;99.90;;;;;;5078795;28;20169;-56
2022/01/05 07:46:50;;;;;;;3.40;1.33;;;2.10;99.90;;;;;;5080352;28;20934;-55
2022/01/05 07:49:16;;;;;;;5.25;1.70;;;2.10;99.90;;;;;;5079442;28;20866;-55
2022/01/05 07:51:43;;;;;;;2.88;1.20;;;2.10;99.90;;;;;;5079904;28;20121;-56
2022/01/05 07:54:10;;;;;;;3.05;1.58;;;2.10;99.90;;;;;;5078884;28;20139;-56
2022/01/05 07:56:37;;;;;;;4.28;1.55;;;2.00;99.90;;;;;;5079351;28;20139;-56
2022/01/05 07:59:04;;;;;;;5.93;1.38;;;2.00;99.90;;;;;;5077687;28;20048;-56
2022/01/05 08:01:31;;;;;;;3.30;1.20;;;2.00;99.90;;;;;;5078966;28;20139;-56
2022/01/05 08:03:58;;;;;;;2.28;1.25;;;2.00;99.90;;;;;;5076037;28;20045;-57
2022/01/05 08:06:25;;;;;;;3.40;1.23;;;2.00;99.90;;;;;;5079884;28;20091;-56
2022/01/05 08:08:51;;;;;;;2.75;0.85;;;2.00;99.90;;;;;;5079954;28;20151;-56
2022/01/05 08:11:18;;;;;;;3.25;1.05;;;2.00;99.90;;;;;;5080180;28;20113;-56
2022/01/05 08:13:45;;;;;;;6.72;1.90;;;2.00;99.90;;;;;;5077876;28;20174;-56
2022/01/05 08:16:12;;;;;;;2.40;1.23;;;2.00;99.90;;;;;;5078289;28;20095;-55
2022/01/05 08:18:39;;;;;;;4.53;1.45;;;2.00;99.90;;;;;;5078570;28;20052;-56
2022/01/05 08:21:05;;;;;;;2.60;1.13;;;2.00;99.90;;;;;;5080480;28;20109;-56
2022/01/05 08:23:32;;;;;;;4.80;1.63;;;2.00;99.90;;;;;;5078528;28;20125;-53
2022/01/05 08:25:59;;;;;;;2.88;1.40;;;2.00;99.90;;;;;;5079599;28;20649;-57
2022/01/05 08:28:26;;;;;;;5.80;2.05;;;2.00;99.90;;;;;;5077259;28;20134;-54
2022/01/05 08:30:52;;;;;;;1.98;0.95;;;2.10;99.90;;;;;;5080213;28;20250;-56
2022/01/05 08:33:19;;;;;;;2.33;1.35;;;2.00;99.90;;;;;;5079596;28;20044;-56
2022/01/05 08:35:46;;;;;;;5.05;1.92;;;2.00;99.90;;;;;;5078892;28;20841;-56
2022/01/05 08:38:13;;;;;;;5.10;1.17;;;2.10;99.90;;;;;;5077535;28;20079;-57
2022/01/05 08:40:40;;;;;;;4.00;1.77;;;2.10;99.90;;;;;;5078999;28;20148;-52
2022/01/05 08:43:09;;;;;;;6.18;1.52;;;2.10;99.90;;;;;;5077358;28;20079;-55
2022/01/05 08:45:36;;;;;;;5.07;1.90;;;2.20;99.90;;;;;;5078166;28;20074;-56
2022/01/05 08:48:03;;;;;;;7.57;1.50;;;2.20;99.90;;;;;;5078700;28;20148;-56
2022/01/05 08:50:31;;;;;;;4.47;1.60;;;2.20;99.90;;;;;;5079003;28;20106;-56
2022/01/05 08:52:58;;;;;;;9.82;1.88;;;2.30;99.90;;;;;;5078853;28;20100;-56
2022/01/05 08:55:27;;;;;;;4.13;1.23;;;2.30;99.90;;;;;;5078946;28;20055;-54
2022/01/05 08:57:54;;;;;;;5.60;2.08;;;2.40;99.90;;;;;;5077283;28;20135;-55
2022/01/05 09:00:21;;;;;;;4.43;1.88;;;2.40;99.90;;;;;;5076813;28;20152;-56
2022/01/05 09:02:49;;;;;;;4.95;1.70;;;2.50;99.90;;;;;;5078093;28;20159;-56
2022/01/05 09:05:21;;;;;;;4.07;1.25;;;2.50;99.90;;;;;;5077303;28;20048;-56
2022/01/05 09:07:48;;;;;;;3.42;1.35;;;2.50;99.90;;;;;;5079063;28;20094;-56
2022/01/05 09:10:15;;;;;;;3.72;1.33;;;2.50;99.90;;;;;;5075521;28;20131;-52
2022/01/05 09:12:41;;;;;;;6.28;1.88;;;2.50;99.90;;;;;;5077711;28;20155;-57
2022/01/05 09:15:09;;;;;;;5.28;1.58;;;2.60;99.90;;;;;;5074886;28;20098;-56
2022/01/05 09:17:35;;;;;;;4.25;1.40;;;2.60;99.90;;;;;;5077993;28;20758;-56
2022/01/05 09:20:03;;;;;;;6.45;1.60;;;2.60;99.90;;;;;;5077657;28;20136;-56
2022/01/05 09:22:30;;;;;;;5.30;1.55;;;2.70;99.90;;;;;;5078362;28;20148;-55
2022/01/05 09:24:57;;;;;;;3.90;1.08;;;2.70;99.90;;;;;;5078619;28;20048;-54
2022/01/05 09:27:24;;;;;;;3.03;1.10;;;2.70;99.90;;;;;;5079041;28;20702;-55
2022/01/05 09:29:50;;;;;;;5.53;1.83;;;2.70;99.90;;;;;;5078452;28;20079;-57
2022/01/05 09:32:17;;;;;;;3.38;2.08;;;2.80;99.90;;;;;;5079231;28;20222;-57
2022/01/05 09:34:44;;;;;;;6.22;2.15;;;2.80;99.90;;;;;;5078269;28;20091;-55
2022/01/05 09:37:34;;;;;;;3.90;1.50;;;2.80;99.90;;;;;;5079384;28;20062;-55
2022/01/05 09:42:46;;;;;;;3.95;1.63;;;2.90;99.90;;;;;;5078384;28;20135;-56
2022/01/05 09:45:15;;;;;;;4.47;1.60;;;2.90;99.90;;;;;;5077275;28;20131;-57
2022/01/05 09:48:01;;;;;;;7.47;2.63;;;3.00;99.90;;;;;;5079185;28;20323;-58
2022/01/05 09:50:28;;;;;;;4.18;1.52;;;3.00;99.90;;;;;;5077858;28;20144;-56
2022/01/05 09:52:55;;;;;;;3.45;1.20;;;3.00;99.90;;;;;;5078900;28;20382;-55
2022/01/05 09:55:22;;;;;;;3.80;1.30;;;3.10;99.90;;;;;;5079103;28;21026;-55
2022/01/05 09:57:49;;;;;;;7.25;1.70;;;3.10;99.90;;;;;;5076716;28;20551;-56
2022/01/05 10:00:17;;;;;;;5.88;2.08;;;3.20;99.90;;;;;;5075880;28;20105;-56
2022/01/05 10:02:45;;;;;;;6.10;2.22;;;3.20;99.90;;;;;;5078852;28;20139;-56
2022/01/05 10:05:13;;;;;;;5.60;2.53;;;3.20;99.90;;;;;;5078178;28;20117;-55
2022/01/05 10:07:41;;;;;;;5.43;2.08;;;3.20;99.90;;;;;;5076269;28;20109;-55
2022/01/05 10:10:09;;;;;;;3.80;1.48;;;3.30;99.90;;;;;;5076253;28;20530;-57
2022/01/05 10:12:35;;;;;;;5.82;1.48;;;3.30;99.90;;;;;;5073650;28;20149;-55
2022/01/05 10:15:02;;;;;;;5.97;2.08;;;3.30;99.90;;;;;;5076062;28;20135;-55
2022/01/05 10:17:30;;;;;;;6.63;2.03;;;3.40;99.90;;;;;;5077339;28;20092;-54
2022/01/05 10:19:59;;;;;;;5.38;1.90;;;3.40;99.90;;;;;;5074870;28;20075;-56
2022/01/05 10:22:27;;;;;;;5.50;1.80;;;3.50;99.90;;;;;;5078687;28;20054;-57
2022/01/05 10:24:56;;;;;;;6.13;1.95;;;3.50;99.90;;;;;;5081825;28;20054;-57
2022/01/05 10:27:23;;;;;;;6.75;1.90;;;3.60;99.90;;;;;;5079742;28;20055;-55
2022/01/05 10:30:04;;;;;;;7.65;2.10;;;3.60;99.90;;;;;;5076917;28;20124;-54
2022/01/05 10:32:33;;;;;;;5.43;1.90;;;3.70;99.90;;;;;;5082364;28;20052;-55
2022/01/05 10:35:12;;;;;;;7.50;2.00;;;3.70;99.90;;;;;;5081651;28;20152;-56
2022/01/05 10:37:41;;;;;;;5.38;1.40;;;3.70;99.90;;;;;;5082488;28;20086;-53
2022/01/05 10:40:20;;;;;;;4.65;1.63;;;3.80;99.90;;;;;;5082274;28;20127;-56
2022/01/05 10:42:49;;;;;;;3.53;1.73;;;3.80;99.90;;;;;;5079783;28;20048;-52
2022/01/05 10:45:21;;;;;;;4.95;1.70;;;3.90;99.90;;;;;;5080220;28;20156;-57
2022/01/05 10:48:05;;;;;;;5.47;1.77;;;3.90;99.90;;;;;;5081768;28;20051;-57
2022/01/05 10:50:32;;;;;;;5.72;1.60;;;4.00;99.90;;;;;;5081519;28;20127;-57
2022/01/05 10:52:58;;;;;;;5.63;1.77;;;4.00;99.90;;;;;;5081133;28;20881;-54
2022/01/05 10:55:27;;;;;;;5.15;1.90;;;4.00;99.90;;;;;;5081533;28;20466;-54
2022/01/05 10:57:59;;;;;;;5.50;2.53;;;4.10;99.90;;;;;;5080923;28;20484;-57
2022/01/05 11:00:36;;;;;;;6.32;1.80;;;4.20;99.90;;;;;;5080338;28;20064;-56
2022/01/05 11:03:18;;;;;;;6.40;1.95;;;4.20;99.90;;;;;;5080810;28;20056;-57
2022/01/05 11:06:04;;;;;;;5.68;2.03;;;4.30;99.90;;;;;;5066106;28;20474;-57
2022/01/05 11:08:32;;;;;;;8.13;2.10;;;4.40;99.90;;;;;;5081194;28;20091;-57
2022/01/05 11:10:59;;;;;;;6.60;2.22;;;4.40;99.90;;;;;;5081390;28;20080;-57
2022/01/05 11:13:27;;;;;;;6.72;2.30;;;4.40;99.90;;;;;;5079808;28;20463;-53
2022/01/05 11:15:58;;;;;;;8.27;2.58;;;4.50;99.90;;;;;;5081531;28;20681;-56
2022/01/05 11:18:29;;;;;;;6.03;2.17;;;4.50;99.90;;;;;;5080677;28;20083;-56
2022/01/05 11:21:01;;;;;;;8.90;2.05;;;4.60;99.90;;;;;;5080619;28;20080;-57
2022/01/05 11:23:30;;;;;;;7.88;2.22;;;4.70;99.90;;;;;;5081045;28;20044;-57
2022/01/05 11:25:58;;;;;;;7.32;2.75;;;4.70;99.90;;;;;;5080886;28;20087;-54
2022/01/05 11:28:26;;;;;;;12.52;2.63;;;4.80;99.90;;;;;;5079828;28;20573;-54
2022/01/05 11:30:54;;;;;;;7.80;2.40;;;4.90;99.90;;;;;;5063301;28;20094;-55
2022/01/05 11:33:21;;;;;;;7.75;2.38;;;4.90;99.90;;;;;;5080311;28;20090;-54
2022/01/05 11:35:48;;;;;;;9.25;2.95;;;4.90;99.90;;;;;;5080388;28;20134;-55
2022/01/05 11:38:14;;;;;;;6.68;2.30;;;5.00;99.90;;;;;;5080977;28;20083;-56
2022/01/05 11:40:51;;;;;;;8.80;2.10;;;5.10;99.90;;;;;;5078404;28;20131;-56
2022/01/05 11:43:27;;;;;;;9.73;2.60;;;5.10;99.90;;;;;;5079775;28;20442;-59
2022/01/05 11:45:54;;;;;;;9.57;2.08;;;5.10;99.90;;;;;;5079424;28;20131;-57
2022/01/05 11:48:24;;;;;;;7.65;2.60;;;5.20;99.90;;;;;;5079492;28;20502;-56
2022/01/05 11:50:56;;;;;;;5.25;2.70;;;5.20;99.90;;;;;;5080076;28;20163;-57
2022/01/05 11:53:38;;;;;;;6.53;2.55;;;5.30;99.90;;;;;;5079032;28;20123;-53
2022/01/05 11:56:07;;;;;;;5.63;1.90;;;5.40;99.90;;;;;;5080972;28;20113;-57
2022/01/05 11:58:35;;;;;;;9.38;2.63;;;5.40;99.90;;;;;;5078868;28;20107;-54
2022/01/05 12:01:12;;;;;;;8.85;3.15;;;5.50;99.90;;;;;;5079730;28;20044;-57
2022/01/05 12:03:58;;;;;;;4.05;1.75;;;5.60;99.90;;;;;;5078469;28;20062;-58
2022/01/05 12:06:34;;;;;;;9.43;1.98;;;5.70;99.90;;;;;;5078220;28;20461;-58
2022/01/05 12:09:05;;;;;;;6.03;2.58;;;5.70;99.90;;;;;;5078905;28;20563;-57
2022/01/05 12:11:38;;;;;;;6.95;2.17;;;5.80;99.90;;;;;;5082945;28;20106;-57
2022/01/05 12:14:06;;;;;;;7.03;1.95;;;5.90;99.90;;;;;;5077178;28;20088;-56
2022/01/05 12:16:55;;;;;;;5.30;2.13;;;6.10;99.90;;;;;;5081264;28;20322;-57
2022/01/05 12:19:22;;;;;;;8.30;2.20;;;6.20;99.90;;;;;;5079759;28;20204;-57
2022/01/05 12:21:50;;;;;;;6.78;2.70;;;6.30;99.90;;;;;;5081481;28;20056;-59
2022/01/05 12:24:18;;;;;;;6.88;2.30;;;6.30;99.90;;;;;;5081307;28;20081;-59
2022/01/05 12:26:44;;;;;;;6.10;2.20;;;6.50;99.90;;;;;;5081426;28;20161;-59
2022/01/05 12:29:11;;;;;;;7.72;2.53;;;6.60;99.90;;;;;;5079185;28;20088;-56
2022/01/05 12:31:51;;;;;;;5.97;2.63;;;6.70;99.90;;;;;;5080405;28;20048;-58
2022/01/05 12:34:54;;;;;;;6.18;3.22;;;6.70;99.90;;;;;;5077847;28;20172;-57
2022/01/05 12:37:40;;;;;;;5.53;2.10;;;6.80;99.90;;;;;;5078712;28;20123;-58
2022/01/05 12:40:25;;;;;;;6.47;2.53;;;7.10;99.90;;;;;;5076811;28;20127;-57
2022/01/05 12:43:13;;;;;;;6.88;2.40;;;7.10;99.90;;;;;;5072491;28;20083;-57
2022/01/05 12:45:49;;;;;;;6.07;1.90;;;7.10;99.90;;;;;;5059943;28;20084;-58
2022/01/05 12:48:39;;;;;;;7.15;3.25;;;7.10;99.90;;;;;;5060037;28;20155;-56
2022/01/05 12:51:22;;;;;;;8.68;2.72;;;7.20;99.90;;;;;;5080600;28;20646;-57
2022/01/05 12:54:09;;;;;;;6.28;2.25;;;7.30;99.90;;;;;;5079122;28;20108;-56
2022/01/05 12:56:51;;;;;;;6.03;2.15;;;7.50;99.90;;;;;;5080696;28;20123;-58
2022/01/05 12:59:28;;;;;;;6.00;2.33;;;7.70;99.90;;;;;;5079028;28;20166;-58
2022/01/05 13:01:58;;;;;;;6.55;2.15;;;8.00;99.90;;;;;;5078681;28;20048;-59
2022/01/05 13:04:25;;;;;;;9.93;2.40;;;8.20;99.90;;;;;;5078344;28;20044;-54
2022/01/05 13:06:53;;;;;;;3.63;1.60;;;7.90;99.90;;;;;;5079835;28;20131;-52